createdAt,value
2017-04-22T00:00:02.347Z,4.57
2017-04-22T00:01:01.278Z,5.77
2017-04-22T00:02:01.042Z,4.63
2017-04-22T00:02:59.968Z,3.72
2017-04-22T00:03:59.616Z,4.13
2017-04-22T00:04:58.548Z,4.32
2017-04-22T00:05:58.230Z,3.83
2017-04-22T00:06:57.867Z,3.90
2017-04-22T00:07:56.769Z,4.45
2017-04-22T00:08:55.739Z,5.10
2017-04-22T00:09:54.786Z,4.28
2017-04-22T00:10:54.447Z,5.40
2017-04-22T00:11:53.391Z,3.77
2017-04-22T00:12:52.371Z,4.90
2017-04-22T00:13:51.403Z,3.60
2017-04-22T00:14:50.419Z,4.22
2017-04-22T00:15:49.335Z,5.07
2017-04-22T00:16:48.257Z,5.18
2017-04-22T00:17:47.205Z,4.40
2017-04-22T00:18:46.116Z,3.78
2017-04-22T00:19:45.431Z,4.50
2017-04-22T00:20:44.368Z,4.67
2017-04-22T00:21:43.272Z,4.47
2017-04-22T00:22:42.167Z,3.85
2017-04-22T00:23:42.049Z,4.10
2017-04-22T00:24:41.018Z,4.20
2017-04-22T00:25:39.936Z,4.02
2017-04-22T00:26:39.589Z,3.50
2017-04-22T00:27:38.490Z,3.92
2017-04-22T00:28:37.439Z,4.68
2017-04-22T00:29:36.374Z,3.58
2017-04-22T00:30:36.033Z,3.57
2017-04-22T00:31:34.964Z,4.08
2017-04-22T00:32:34.642Z,3.23
2017-04-22T00:33:33.913Z,3.57
2017-04-22T00:34:32.891Z,3.78
2017-04-22T00:35:31.838Z,4.73
2017-04-22T00:36:30.763Z,3.80
2017-04-22T00:37:29.679Z,3.50
2017-04-22T00:38:28.603Z,3.57
2017-04-22T00:39:27.515Z,4.25
2017-04-22T00:40:26.431Z,3.85
2017-04-22T00:41:25.372Z,3.97
2017-04-22T00:42:24.274Z,3.58
2017-04-22T00:43:23.920Z,3.93
2017-04-22T00:44:22.818Z,4.20
2017-04-22T00:45:21.713Z,4.37
2017-04-22T00:46:21.695Z,3.58
2017-04-22T00:47:20.687Z,4.02
2017-04-22T00:48:19.604Z,3.65
2017-04-22T00:49:19.263Z,3.58
2017-04-22T00:50:18.209Z,3.25
2017-04-22T00:51:17.095Z,3.35
2017-04-22T00:52:16.027Z,3.60
2017-04-22T00:53:14.943Z,3.55
2017-04-22T00:54:13.840Z,3.12
2017-04-22T00:55:12.725Z,3.42
2017-04-22T00:56:11.660Z,3.35
2017-04-22T00:57:11.331Z,3.05
2017-04-22T00:58:10.287Z,3.45
2017-04-22T00:59:09.235Z,3.40
2017-04-22T01:00:08.983Z,3.27
2017-04-22T01:01:07.883Z,4.05
2017-04-22T01:02:06.784Z,3.48
2017-04-22T01:03:05.693Z,3.60
2017-04-22T01:04:04.588Z,3.68
2017-04-22T01:05:03.503Z,3.28
2017-04-22T01:06:02.406Z,3.62
2017-04-22T01:07:02.060Z,3.60
2017-04-22T01:08:00.964Z,3.70
2017-04-22T01:08:59.885Z,3.27
2017-04-22T01:09:58.817Z,3.37
2017-04-22T01:10:57.754Z,3.60
2017-04-22T01:11:56.676Z,3.72
2017-04-22T01:12:55.612Z,3.23
2017-04-22T01:13:54.528Z,3.05
2017-04-22T01:14:53.435Z,3.45
2017-04-22T01:15:52.703Z,3.03
2017-04-22T01:16:51.700Z,3.32
2017-04-22T01:17:50.589Z,3.60
2017-04-22T01:18:49.538Z,3.30
2017-04-22T01:19:48.424Z,2.55
2017-04-22T01:20:47.395Z,3.22
2017-04-22T01:21:46.311Z,3.10
2017-04-22T01:22:45.260Z,3.50
2017-04-22T01:23:44.182Z,2.95
2017-04-22T01:24:43.106Z,3.30
2017-04-22T01:25:42.036Z,2.77
2017-04-22T01:26:40.944Z,3.12
2017-04-22T01:27:39.906Z,3.47
2017-04-22T01:28:38.828Z,3.45
2017-04-22T01:29:37.835Z,2.77
2017-04-22T01:30:36.753Z,3.33
2017-04-22T01:31:36.046Z,3.20
2017-04-22T01:32:34.972Z,3.10
2017-04-22T01:33:33.877Z,2.85
2017-04-22T01:34:32.826Z,3.60
2017-04-22T01:35:31.733Z,2.53
2017-04-22T01:36:30.694Z,3.08
2017-04-22T01:37:29.600Z,3.25
2017-04-22T01:38:28.527Z,2.67
2017-04-22T01:39:28.190Z,2.65
2017-04-22T01:40:27.117Z,2.92
2017-04-22T01:41:26.855Z,2.70
2017-04-22T01:42:25.767Z,2.38
2017-04-22T01:43:25.477Z,2.57
2017-04-22T01:44:24.363Z,2.95
2017-04-22T01:45:24.111Z,2.70
2017-04-22T01:46:23.047Z,2.70
2017-04-22T01:47:22.720Z,2.65
2017-04-22T01:48:21.615Z,3.00
2017-04-22T01:49:21.260Z,2.43
2017-04-22T01:50:20.153Z,2.65
2017-04-22T01:51:19.136Z,2.83
2017-04-22T01:52:18.102Z,2.68
2017-04-22T01:53:17.011Z,2.50
2017-04-22T01:54:15.924Z,2.50
2017-04-22T01:55:15.593Z,2.25
2017-04-22T01:56:14.578Z,2.42
2017-04-22T01:57:13.504Z,2.64
2017-04-22T01:58:13.168Z,2.90
2017-04-22T01:59:12.276Z,2.98
2017-04-22T02:00:11.922Z,2.10
2017-04-22T02:01:10.828Z,2.62
2017-04-22T02:02:09.735Z,2.32
2017-04-22T02:03:09.383Z,2.50
2017-04-22T02:04:08.328Z,2.35
2017-04-22T02:05:08.017Z,1.70
2017-04-22T02:06:08.079Z,2.33
2017-04-22T02:07:07.019Z,2.27
2017-04-22T02:08:05.927Z,2.70
2017-04-22T02:09:05.383Z,2.28
2017-04-22T02:10:05.081Z,2.13
2017-04-22T02:11:04.728Z,2.58
2017-04-22T02:12:03.632Z,2.30
2017-04-22T02:13:02.555Z,2.10
2017-04-22T02:14:01.476Z,2.42
2017-04-22T02:15:00.411Z,2.98
2017-04-22T02:16:00.074Z,2.60
2017-04-22T02:16:58.987Z,1.98
2017-04-22T02:17:57.912Z,2.70
2017-04-22T02:18:56.926Z,2.75
2017-04-22T02:19:55.888Z,2.40
2017-04-22T02:20:54.800Z,2.40
2017-04-22T02:21:54.483Z,2.50
2017-04-22T02:22:53.397Z,2.80
2017-04-22T02:23:53.048Z,2.48
2017-04-22T02:24:51.955Z,2.45
2017-04-22T02:25:50.935Z,2.47
2017-04-22T02:26:49.859Z,2.50
2017-04-22T02:27:48.799Z,2.80
2017-04-22T02:28:48.443Z,2.40
2017-04-22T02:29:47.359Z,2.25
2017-04-22T02:30:46.259Z,2.33
2017-04-22T02:31:45.159Z,2.52
2017-04-22T02:32:44.815Z,2.82
2017-04-22T02:33:43.736Z,2.82
2017-04-22T02:34:43.364Z,2.78
2017-04-22T02:35:42.268Z,2.47
2017-04-22T02:36:41.179Z,2.20
2017-04-22T02:37:41.187Z,2.78
2017-04-22T02:38:40.092Z,2.43
2017-04-22T02:39:39.114Z,2.30
2017-04-22T02:40:38.031Z,2.53
2017-04-22T02:41:37.679Z,2.60
2017-04-22T02:42:36.700Z,2.60
2017-04-22T02:43:35.600Z,2.32
2017-04-22T02:44:35.239Z,2.48
2017-04-22T02:45:34.171Z,2.43
2017-04-22T02:46:33.807Z,2.60
2017-04-22T02:47:32.757Z,2.60
2017-04-22T02:48:32.728Z,2.52
2017-04-22T02:49:31.643Z,2.57
2017-04-22T02:50:31.312Z,2.80
2017-04-22T02:51:30.242Z,2.70
2017-04-22T02:52:29.124Z,3.07
2017-04-22T02:53:28.036Z,3.25
2017-04-22T02:54:27.017Z,3.05
2017-04-22T02:55:25.999Z,3.22
2017-04-22T02:56:25.007Z,2.03
2017-04-22T02:57:24.015Z,2.92
2017-04-22T02:58:23.766Z,2.22
2017-04-22T02:59:22.700Z,2.55
2017-04-22T03:00:21.698Z,3.18
2017-04-22T03:01:20.604Z,2.60
2017-04-22T03:02:19.552Z,2.43
2017-04-22T03:03:19.349Z,2.82
2017-04-22T03:04:19.015Z,2.47
2017-04-22T03:05:17.935Z,2.08
2017-04-22T03:06:17.038Z,2.52
2017-04-22T03:07:15.996Z,2.78
2017-04-22T03:08:14.929Z,2.22
2017-04-22T03:09:13.896Z,1.87
2017-04-22T03:10:12.820Z,1.70
2017-04-22T03:11:11.726Z,2.12
2017-04-22T03:12:10.731Z,2.40
2017-04-22T03:13:09.624Z,2.00
2017-04-22T03:14:08.546Z,2.37
2017-04-22T03:15:07.535Z,1.90
2017-04-22T03:16:07.230Z,2.35
2017-04-22T03:17:06.132Z,2.25
2017-04-22T03:18:05.768Z,2.47
2017-04-22T03:19:04.739Z,2.07
2017-04-22T03:20:03.682Z,2.20
2017-04-22T03:21:03.430Z,2.12
2017-04-22T03:22:02.405Z,2.38
2017-04-22T03:23:01.387Z,2.32
2017-04-22T03:24:00.303Z,2.40
2017-04-22T03:24:59.233Z,2.82
2017-04-22T03:25:58.193Z,2.20
2017-04-22T03:26:57.907Z,2.20
2017-04-22T03:27:56.825Z,2.40
2017-04-22T03:28:55.751Z,2.35
2017-04-22T03:29:55.419Z,2.80
2017-04-22T03:30:54.350Z,2.78
2017-04-22T03:31:53.259Z,2.60
2017-04-22T03:32:52.221Z,2.58
2017-04-22T03:33:51.099Z,2.68
2017-04-22T03:34:49.999Z,3.55
2017-04-22T03:35:49.063Z,2.98
2017-04-22T03:36:48.004Z,2.45
2017-04-22T03:37:47.075Z,2.80
2017-04-22T03:38:46.058Z,2.53
2017-04-22T03:39:44.952Z,2.85
2017-04-22T03:40:43.848Z,3.20
2017-04-22T03:41:43.500Z,3.10
2017-04-22T03:42:42.420Z,3.10
2017-04-22T03:43:41.379Z,2.87
2017-04-22T03:44:40.332Z,2.45
2017-04-22T03:45:39.223Z,2.58
2017-04-22T03:46:38.118Z,3.12
2017-04-22T03:47:37.008Z,2.75
2017-04-22T03:48:35.920Z,3.08
2017-04-22T03:49:35.561Z,2.92
2017-04-22T03:50:34.484Z,2.90
2017-04-22T03:51:33.391Z,3.10
2017-04-22T03:52:32.331Z,3.02
2017-04-22T03:53:31.236Z,2.65
2017-04-22T03:54:30.959Z,3.02
2017-04-22T03:55:29.860Z,2.50
2017-04-22T03:56:28.775Z,3.43
2017-04-22T03:57:27.929Z,3.17
2017-04-22T03:58:26.868Z,2.60
2017-04-22T03:59:26.491Z,2.68
2017-04-22T04:00:25.388Z,2.78
2017-04-22T04:01:24.323Z,2.67
2017-04-22T04:02:24.000Z,2.82
2017-04-22T04:03:22.916Z,3.85
2017-04-22T04:04:22.585Z,3.10
2017-04-22T04:05:21.499Z,3.13
2017-04-22T04:06:20.457Z,2.60
2017-04-22T04:07:19.372Z,2.65
2017-04-22T04:08:18.316Z,3.20
2017-04-22T04:09:17.252Z,3.02
2017-04-22T04:10:16.167Z,3.57
2017-04-22T04:11:15.088Z,2.98
2017-04-22T04:12:14.013Z,3.08
2017-04-22T04:13:12.924Z,2.92
2017-04-22T04:14:12.082Z,3.48
2017-04-22T04:15:11.035Z,2.60
2017-04-22T04:16:10.031Z,2.67
2017-04-22T04:17:09.116Z,2.70
2017-04-22T04:18:08.030Z,2.52
2017-04-22T04:19:06.920Z,2.90
2017-04-22T04:20:05.865Z,2.32
2017-04-22T04:21:04.791Z,3.18
2017-04-22T04:22:04.476Z,3.23
2017-04-22T04:23:03.376Z,2.62
2017-04-22T04:24:03.019Z,2.63
2017-04-22T04:25:01.945Z,2.75
2017-04-22T04:26:00.891Z,2.90
2017-04-22T04:26:59.798Z,2.30
2017-04-22T04:27:58.696Z,2.60
2017-04-22T04:28:58.340Z,2.33
2017-04-22T04:29:57.264Z,2.55
2017-04-22T04:30:56.176Z,2.87
2017-04-22T04:31:55.175Z,2.20
2017-04-22T04:32:54.079Z,2.48
2017-04-22T04:33:53.011Z,2.43
2017-04-22T04:34:52.693Z,2.78
2017-04-22T04:35:52.384Z,2.70
2017-04-22T04:36:51.303Z,2.20
2017-04-22T04:37:50.281Z,2.52
2017-04-22T04:38:49.192Z,2.20
2017-04-22T04:39:48.282Z,2.08
2017-04-22T04:40:47.192Z,2.23
2017-04-22T04:41:46.141Z,2.80
2017-04-22T04:42:45.100Z,2.50
2017-04-22T04:43:44.227Z,2.55
2017-04-22T04:44:43.242Z,2.15
2017-04-22T04:45:42.933Z,2.75
2017-04-22T04:46:41.853Z,2.30
2017-04-22T04:47:40.776Z,2.10
2017-04-22T04:48:39.754Z,2.40
2017-04-22T04:49:38.671Z,2.30
2017-04-22T04:50:38.451Z,2.15
2017-04-22T04:51:37.731Z,2.93
2017-04-22T04:52:36.807Z,2.28
2017-04-22T04:53:35.726Z,2.30
2017-04-22T04:54:35.392Z,2.07
2017-04-22T04:55:34.402Z,2.48
2017-04-22T04:56:34.057Z,2.55
2017-04-22T04:57:32.955Z,2.17
2017-04-22T04:58:31.907Z,3.03
2017-04-22T04:59:30.866Z,3.00
2017-04-22T05:00:29.791Z,2.90
2017-04-22T05:01:28.725Z,2.55
2017-04-22T05:02:27.758Z,3.00
2017-04-22T05:03:26.651Z,2.60
2017-04-22T05:04:25.602Z,2.60
2017-04-22T05:05:24.521Z,2.57
2017-04-22T05:06:23.596Z,2.68
2017-04-22T05:07:22.528Z,2.82
2017-04-22T05:08:21.649Z,2.62
2017-04-22T05:09:20.603Z,2.75
2017-04-22T05:10:21.254Z,2.80
2017-04-22T05:11:20.172Z,1.90
2017-04-22T05:12:19.836Z,2.63
2017-04-22T05:13:18.865Z,2.58
2017-04-22T05:14:18.581Z,2.23
2017-04-22T05:15:17.511Z,2.12
2017-04-22T05:16:16.446Z,2.58
2017-04-22T05:17:15.407Z,2.20
2017-04-22T05:18:15.056Z,2.50
2017-04-22T05:19:14.011Z,2.42
2017-04-22T05:20:12.921Z,2.17
2017-04-22T05:21:11.828Z,2.07
2017-04-22T05:22:10.816Z,2.10
2017-04-22T05:23:10.459Z,2.50
2017-04-22T05:24:09.386Z,2.33
2017-04-22T05:25:08.347Z,2.27
2017-04-22T05:26:07.244Z,1.97
2017-04-22T05:27:06.175Z,1.90
2017-04-22T05:28:05.428Z,2.37
2017-04-22T05:29:05.093Z,2.37
2017-04-22T05:30:03.983Z,2.30
2017-04-22T05:31:02.909Z,2.70
2017-04-22T05:32:01.819Z,2.20
2017-04-22T05:33:00.747Z,2.10
2017-04-22T05:34:00.382Z,2.60
2017-04-22T05:34:59.283Z,2.23
2017-04-22T05:35:58.210Z,1.70
2017-04-22T05:36:57.147Z,2.28
2017-04-22T05:37:56.197Z,2.73
2017-04-22T05:38:55.109Z,2.22
2017-04-22T05:39:54.032Z,2.55
2017-04-22T05:40:53.370Z,2.30
2017-04-22T05:41:52.377Z,2.04
2017-04-22T05:42:51.309Z,1.98
2017-04-22T05:43:50.964Z,2.43
2017-04-22T05:44:49.908Z,2.38
2017-04-22T05:45:48.823Z,2.93
2017-04-22T05:46:47.740Z,2.70
2017-04-22T05:47:47.383Z,2.60
2017-04-22T05:48:46.352Z,2.10
2017-04-22T05:49:45.276Z,2.22
2017-04-22T05:50:44.246Z,2.28
2017-04-22T05:51:43.148Z,2.62
2017-04-22T05:52:42.049Z,2.20
2017-04-22T05:53:40.965Z,2.40
2017-04-22T05:54:39.916Z,2.48
2017-04-22T05:55:38.840Z,2.48
2017-04-22T05:56:37.800Z,2.70
2017-04-22T05:57:36.722Z,2.27
2017-04-22T05:58:35.611Z,2.78
2017-04-22T05:59:34.510Z,3.40
2017-04-22T06:00:34.178Z,2.13
2017-04-22T06:01:33.109Z,2.40
2017-04-22T06:02:32.030Z,2.55
2017-04-22T06:03:31.004Z,2.67
2017-04-22T06:04:29.913Z,3.00
2017-04-22T06:05:28.864Z,2.52
2017-04-22T06:06:27.795Z,2.53
2017-04-22T06:07:27.476Z,2.47
2017-04-22T06:08:26.375Z,2.33
2017-04-22T06:09:26.029Z,3.52
2017-04-22T06:10:25.005Z,2.55
2017-04-22T06:11:23.923Z,2.68
2017-04-22T06:12:23.619Z,2.57
2017-04-22T06:13:22.539Z,3.00
2017-04-22T06:14:21.519Z,2.97
2017-04-22T06:15:20.455Z,2.97
2017-04-22T06:16:19.423Z,2.88
2017-04-22T06:17:18.339Z,2.95
2017-04-22T06:18:17.261Z,2.55
2017-04-22T06:19:16.173Z,2.30
2017-04-22T06:20:15.087Z,2.45
2017-04-22T06:21:14.732Z,2.72
2017-04-22T06:22:13.643Z,2.48
2017-04-22T06:23:12.543Z,3.22
2017-04-22T06:24:12.204Z,2.68
2017-04-22T06:25:11.195Z,3.00
2017-04-22T06:26:10.174Z,2.90
2017-04-22T06:27:09.094Z,2.93
2017-04-22T06:28:08.741Z,2.27
2017-04-22T06:29:07.682Z,2.63
2017-04-22T06:30:07.362Z,2.94
2017-04-22T06:31:06.264Z,3.00
2017-04-22T06:32:05.208Z,2.62
2017-04-22T06:33:04.638Z,3.25
2017-04-22T06:34:03.747Z,2.48
2017-04-22T06:35:02.699Z,2.42
2017-04-22T06:36:01.731Z,3.20
2017-04-22T06:37:00.656Z,3.17
2017-04-22T06:38:00.347Z,2.95
2017-04-22T06:39:00.016Z,3.52
2017-04-22T06:39:58.916Z,3.55
2017-04-22T06:40:57.844Z,3.00
2017-04-22T06:41:56.801Z,2.40
2017-04-22T06:42:56.475Z,3.20
2017-04-22T06:43:55.843Z,2.87
2017-04-22T06:44:54.853Z,2.75
2017-04-22T06:45:54.135Z,3.17
2017-04-22T06:46:53.946Z,3.08
2017-04-22T06:47:52.906Z,3.68
2017-04-22T06:48:51.804Z,2.72
2017-04-22T06:49:50.773Z,2.93
2017-04-22T06:50:49.672Z,3.20
2017-04-22T06:51:48.595Z,2.82
2017-04-22T06:52:47.571Z,3.25
2017-04-22T06:53:46.500Z,2.90
2017-04-22T06:54:45.379Z,2.92
2017-04-22T06:55:44.296Z,2.80
2017-04-22T06:56:43.968Z,2.58
2017-04-22T06:57:42.905Z,3.52
2017-04-22T06:58:41.920Z,3.20
2017-04-22T06:59:40.899Z,3.68
2017-04-22T07:00:40.012Z,2.72
2017-04-22T07:01:39.749Z,3.38
2017-04-22T07:02:41.516Z,3.13
2017-04-22T07:03:40.491Z,2.98
2017-04-22T07:04:39.421Z,2.75
2017-04-22T07:05:38.412Z,2.80
2017-04-22T07:06:38.248Z,3.18
2017-04-22T07:07:37.177Z,2.97
2017-04-22T07:08:36.088Z,2.65
2017-04-22T07:09:35.803Z,2.93
2017-04-22T07:10:34.712Z,2.70
2017-04-22T07:11:33.728Z,3.07
2017-04-22T07:12:32.757Z,3.30
2017-04-22T07:13:31.672Z,2.77
2017-04-22T07:14:30.600Z,3.32
2017-04-22T07:15:30.255Z,3.22
2017-04-22T07:16:29.179Z,2.80
2017-04-22T07:17:28.120Z,3.62
2017-04-22T07:18:28.238Z,3.20
2017-04-22T07:19:27.166Z,3.08
2017-04-22T07:20:26.081Z,3.72
2017-04-22T07:21:25.047Z,3.40
2017-04-22T07:22:23.972Z,3.30
2017-04-22T07:23:22.899Z,3.20
2017-04-22T07:24:21.879Z,3.05
2017-04-22T07:25:20.857Z,3.37
2017-04-22T07:26:19.879Z,3.20
2017-04-22T07:27:18.843Z,4.02
2017-04-22T07:28:18.255Z,3.78
2017-04-22T07:29:17.222Z,3.40
2017-04-22T07:30:16.143Z,3.40
2017-04-22T07:31:15.859Z,3.70
2017-04-22T07:32:15.514Z,3.88
2017-04-22T07:33:14.456Z,3.80
2017-04-22T07:34:13.413Z,4.48
2017-04-22T07:35:14.735Z,3.33
2017-04-22T07:36:13.663Z,3.82
2017-04-22T07:37:12.607Z,3.52
2017-04-22T07:38:12.256Z,3.33
2017-04-22T07:39:11.184Z,3.12
2017-04-22T07:40:10.092Z,3.98
2017-04-22T07:41:09.094Z,3.52
2017-04-22T07:42:08.015Z,3.37
2017-04-22T07:43:06.973Z,3.35
2017-04-22T07:44:06.284Z,3.37
2017-04-22T07:45:05.199Z,2.93
2017-04-22T07:46:04.958Z,3.60
2017-04-22T07:47:04.062Z,3.30
2017-04-22T07:48:03.034Z,3.77
2017-04-22T07:49:01.973Z,3.23
2017-04-22T07:50:00.912Z,2.63
2017-04-22T07:50:59.877Z,2.43
2017-04-22T07:51:58.887Z,2.48
2017-04-22T07:52:58.636Z,2.98
2017-04-22T07:53:57.569Z,2.85
2017-04-22T07:54:57.229Z,2.83
2017-04-22T07:55:56.215Z,3.00
2017-04-22T07:56:55.117Z,3.02
2017-04-22T07:57:54.029Z,3.13
2017-04-22T07:58:52.953Z,3.02
2017-04-22T07:59:51.882Z,3.40
2017-04-22T08:00:51.547Z,2.60
2017-04-22T08:01:50.454Z,3.22
2017-04-22T08:02:50.132Z,2.90
2017-04-22T08:03:49.875Z,2.45
2017-04-22T08:04:48.839Z,2.68
2017-04-22T08:05:48.479Z,3.03
2017-04-22T08:06:47.387Z,2.67
2017-04-22T08:07:46.356Z,2.70
2017-04-22T08:08:45.314Z,3.00
2017-04-22T08:09:44.299Z,2.37
2017-04-22T08:10:43.227Z,2.68
2017-04-22T08:11:42.136Z,2.88
2017-04-22T08:12:41.044Z,2.40
2017-04-22T08:13:40.033Z,2.63
2017-04-22T08:14:39.036Z,3.05
2017-04-22T08:15:37.932Z,2.42
2017-04-22T08:16:36.919Z,2.40
2017-04-22T08:17:35.877Z,2.22
2017-04-22T08:18:34.861Z,2.43
2017-04-22T08:19:33.850Z,3.00
2017-04-22T08:20:32.783Z,2.80
2017-04-22T08:21:31.806Z,2.86
2017-04-22T08:22:30.892Z,3.00
2017-04-22T08:23:29.898Z,2.95
2017-04-22T08:24:28.883Z,2.90
2017-04-22T08:25:27.830Z,2.73
2017-04-22T08:26:26.770Z,2.85
2017-04-22T08:27:25.676Z,3.00
2017-04-22T08:28:24.639Z,3.15
2017-04-22T08:29:23.578Z,2.75
2017-04-22T08:30:22.899Z,3.02
2017-04-22T08:31:22.000Z,2.87
2017-04-22T08:32:21.856Z,2.67
2017-04-22T08:33:20.796Z,2.70
2017-04-22T08:34:19.833Z,2.67
2017-04-22T08:35:18.727Z,2.25
2017-04-22T08:36:18.410Z,3.10
2017-04-22T08:37:17.356Z,3.52
2017-04-22T08:38:16.255Z,2.53
2017-04-22T08:39:15.202Z,2.48
2017-04-22T08:40:14.170Z,3.68
2017-04-22T08:41:13.123Z,3.03
2017-04-22T08:42:12.816Z,2.52
2017-04-22T08:43:11.760Z,2.85
2017-04-22T08:44:10.869Z,3.22
2017-04-22T08:45:09.780Z,3.40
2017-04-22T08:46:09.523Z,3.50
2017-04-22T08:47:08.431Z,3.27
2017-04-22T08:48:07.359Z,3.78
2017-04-22T08:49:06.384Z,3.93
2017-04-22T08:50:09.128Z,3.27
2017-04-22T08:51:08.968Z,3.48
2017-04-22T08:52:08.044Z,3.12
2017-04-22T08:53:06.955Z,4.33
2017-04-22T08:54:05.870Z,3.15
2017-04-22T08:55:04.791Z,3.65
2017-04-22T08:56:04.087Z,2.97
2017-04-22T08:57:03.105Z,3.48
2017-04-22T08:58:02.816Z,3.03
2017-04-22T08:59:01.728Z,3.42
2017-04-22T09:00:00.661Z,3.78
2017-04-22T09:01:00.445Z,3.63
2017-04-22T09:02:00.166Z,3.33
2017-04-22T09:02:59.877Z,2.73
2017-04-22T09:03:58.792Z,3.83
2017-04-22T09:04:57.753Z,3.50
2017-04-22T09:05:56.728Z,3.68
2017-04-22T09:06:55.647Z,3.10
2017-04-22T09:07:54.621Z,2.92
2017-04-22T09:08:53.539Z,3.50
2017-04-22T09:09:53.205Z,3.14
2017-04-22T09:10:52.207Z,3.97
2017-04-22T09:11:51.156Z,3.27
2017-04-22T09:12:50.139Z,3.23
2017-04-22T09:13:49.064Z,3.48
2017-04-22T09:14:48.021Z,3.78
2017-04-22T09:15:46.968Z,3.47
2017-04-22T09:16:45.896Z,3.22
2017-04-22T09:17:44.817Z,2.63
2017-04-22T09:18:43.723Z,2.42
2017-04-22T09:19:42.640Z,2.57
2017-04-22T09:20:41.632Z,2.10
2017-04-22T09:21:40.540Z,2.45
2017-04-22T09:22:39.475Z,2.50
2017-04-22T09:23:38.428Z,2.30
2017-04-22T09:24:37.395Z,2.30
2017-04-22T09:25:36.327Z,2.00
2017-04-22T09:26:35.333Z,2.25
2017-04-22T09:27:34.993Z,2.00
2017-04-22T09:28:33.917Z,1.80
2017-04-22T09:29:33.592Z,2.48
2017-04-22T09:30:32.544Z,2.27
2017-04-22T09:31:31.542Z,2.08
2017-04-22T09:32:30.539Z,1.70
2017-04-22T09:33:29.555Z,2.53
2017-04-22T09:34:28.592Z,2.20
2017-04-22T09:35:27.520Z,2.33
2017-04-22T09:36:26.531Z,2.00
2017-04-22T09:37:25.428Z,1.90
2017-04-22T09:38:24.419Z,2.42
2017-04-22T09:39:23.336Z,2.23
2017-04-22T09:40:23.015Z,1.70
2017-04-22T09:41:22.084Z,2.00
2017-04-22T09:42:21.037Z,2.30
2017-04-22T09:43:19.961Z,2.40
2017-04-22T09:44:18.888Z,1.83
2017-04-22T09:45:17.801Z,1.30
2017-04-22T09:46:16.739Z,1.20
2017-04-22T09:47:15.778Z,1.00
2017-04-22T09:48:14.699Z,1.10
2017-04-22T09:49:14.377Z,1.00
2017-04-22T09:50:13.337Z,1.30
2017-04-22T09:51:12.279Z,1.20
2017-04-22T09:52:11.194Z,1.68
2017-04-22T09:53:11.242Z,1.40
2017-04-22T09:54:10.996Z,1.90
2017-04-22T09:55:09.909Z,1.60
2017-04-22T09:56:08.861Z,1.97
2017-04-22T09:57:07.793Z,1.78
2017-04-22T09:58:07.552Z,2.58
2017-04-22T09:59:06.439Z,1.85
2017-04-22T10:00:07.326Z,2.05
2017-04-22T10:01:06.261Z,2.50
2017-04-22T10:02:05.244Z,1.92
2017-04-22T10:03:04.135Z,1.87
2017-04-22T10:04:03.299Z,1.90
2017-04-22T10:05:02.180Z,2.05
2017-04-22T10:06:01.145Z,2.17
2017-04-22T10:07:00.040Z,2.83
2017-04-22T10:07:59.772Z,2.17
2017-04-22T10:08:58.724Z,2.43
2017-04-22T10:09:57.628Z,2.53
2017-04-22T10:10:57.289Z,1.90
2017-04-22T10:11:56.209Z,2.12
2017-04-22T10:12:55.972Z,2.10
2017-04-22T10:13:54.962Z,2.25
2017-04-22T10:14:53.899Z,2.48
2017-04-22T10:15:52.844Z,2.13
2017-04-22T10:16:51.841Z,2.37
2017-04-22T10:17:51.513Z,2.35
2017-04-22T10:18:50.586Z,2.70
2017-04-22T10:19:50.285Z,2.00
2017-04-22T10:20:49.211Z,1.80
2017-04-22T10:21:48.154Z,1.68
2017-04-22T10:22:47.059Z,2.30
2017-04-22T10:23:46.020Z,2.20
2017-04-22T10:24:45.720Z,2.20
2017-04-22T10:25:44.672Z,2.40
2017-04-22T10:26:43.647Z,2.07
2017-04-22T10:27:42.756Z,2.28
2017-04-22T10:28:41.669Z,2.10
2017-04-22T10:29:41.303Z,2.23
2017-04-22T10:30:40.215Z,2.58
2017-04-22T10:31:39.201Z,1.60
2017-04-22T10:32:38.129Z,1.70
2017-04-22T10:33:37.112Z,1.93
2017-04-22T10:34:36.036Z,2.10
2017-04-22T10:35:34.977Z,1.90
2017-04-22T10:36:33.888Z,1.70
2017-04-22T10:37:32.835Z,2.03
2017-04-22T10:38:31.814Z,2.05
2017-04-22T10:39:31.484Z,2.30
2017-04-22T10:40:30.427Z,1.85
2017-04-22T10:41:29.439Z,2.38
2017-04-22T10:42:28.419Z,2.50
2017-04-22T10:43:27.424Z,2.20
2017-04-22T10:44:26.346Z,2.47
2017-04-22T10:45:25.268Z,2.22
2017-04-22T10:46:24.256Z,2.67
2017-04-22T10:47:23.223Z,2.35
2017-04-22T10:48:22.171Z,2.27
2017-04-22T10:49:21.136Z,2.20
2017-04-22T10:50:20.080Z,2.50
2017-04-22T10:51:18.996Z,2.35
2017-04-22T10:52:18.699Z,2.28
2017-04-22T10:53:17.666Z,2.50
2017-04-22T10:54:17.421Z,2.15
2017-04-22T10:55:16.399Z,2.15
2017-04-22T10:56:15.388Z,2.58
2017-04-22T10:57:14.410Z,2.50
2017-04-22T10:58:13.323Z,2.30
2017-04-22T10:59:12.229Z,2.05
2017-04-22T11:00:11.155Z,2.35
2017-04-22T11:01:10.149Z,2.23
2017-04-22T11:02:09.828Z,2.20
2017-04-22T11:03:08.752Z,2.50
2017-04-22T11:04:07.795Z,2.28
2017-04-22T11:05:06.759Z,2.10
2017-04-22T11:06:05.740Z,3.03
2017-04-22T11:07:04.667Z,2.38
2017-04-22T11:08:03.698Z,2.42
2017-04-22T11:09:02.650Z,2.37
2017-04-22T11:10:01.588Z,2.53
2017-04-22T11:11:00.542Z,2.03
2017-04-22T11:11:59.474Z,2.30
2017-04-22T11:12:58.434Z,2.27
2017-04-22T11:13:57.386Z,2.03
2017-04-22T11:14:56.288Z,2.48
2017-04-22T11:15:55.617Z,2.02
2017-04-22T11:16:54.551Z,1.80
2017-04-22T11:17:54.055Z,2.22
2017-04-22T11:18:53.106Z,2.37
2017-04-22T11:19:53.126Z,2.03
2017-04-22T11:20:52.432Z,2.22
2017-04-22T11:21:51.380Z,1.83
2017-04-22T11:22:50.324Z,2.00
2017-04-22T11:23:49.995Z,2.10
2017-04-22T11:24:48.943Z,2.32
2017-04-22T11:25:47.885Z,2.37
2017-04-22T11:26:47.552Z,2.00
2017-04-22T11:27:46.477Z,2.40
2017-04-22T11:28:45.409Z,1.90
2017-04-22T11:29:44.315Z,1.65
2017-04-22T11:30:44.016Z,1.65
2017-04-22T11:31:43.706Z,1.88
2017-04-22T11:32:43.413Z,1.45
2017-04-22T11:33:42.775Z,1.90
2017-04-22T11:34:41.682Z,1.80
2017-04-22T11:35:41.347Z,1.83
2017-04-22T11:36:40.269Z,1.23
2017-04-22T11:37:39.952Z,1.30
2017-04-22T11:38:38.919Z,1.10
2017-04-22T11:39:38.719Z,0.90
2017-04-22T11:40:37.788Z,1.10
2017-04-22T11:41:36.736Z,0.95
2017-04-22T11:42:35.771Z,1.10
2017-04-22T11:43:34.775Z,1.00
2017-04-22T11:44:33.715Z,0.90
2017-04-22T11:45:32.695Z,1.13
2017-04-22T11:46:31.627Z,1.25
2017-04-22T11:47:30.594Z,0.75
2017-04-22T11:48:29.540Z,0.97
2017-04-22T11:49:28.471Z,0.68
2017-04-22T11:50:28.237Z,1.23
2017-04-22T11:51:27.196Z,1.32
2017-04-22T11:52:26.202Z,0.87
2017-04-22T11:53:25.139Z,1.10
2017-04-22T11:54:24.188Z,1.30
2017-04-22T11:55:23.095Z,1.30
2017-04-22T11:56:22.904Z,1.15
2017-04-22T11:57:21.935Z,1.65
2017-04-22T11:58:20.986Z,1.40
2017-04-22T11:59:19.952Z,1.55
2017-04-22T12:00:18.920Z,2.13
2017-04-22T12:01:18.635Z,1.70
2017-04-22T12:02:17.607Z,1.90
2017-04-22T12:03:17.296Z,1.72
2017-04-22T12:04:17.067Z,2.02
2017-04-22T12:05:16.025Z,2.20
2017-04-22T12:06:14.947Z,1.92
2017-04-22T12:07:14.287Z,1.90
2017-04-22T12:08:13.306Z,2.50
2017-04-22T12:09:12.228Z,2.35
2017-04-22T12:10:11.171Z,1.80
2017-04-22T12:11:10.107Z,1.85
2017-04-22T12:12:09.117Z,2.25
2017-04-22T12:13:08.123Z,1.70
2017-04-22T12:14:07.052Z,2.08
2017-04-22T12:15:06.747Z,1.60
2017-04-22T12:16:05.864Z,2.10
2017-04-22T12:17:04.803Z,1.95
2017-04-22T12:18:03.825Z,1.85
2017-04-22T12:19:03.133Z,2.55
2017-04-22T12:20:02.102Z,2.47
2017-04-22T12:21:01.148Z,2.32
2017-04-22T12:22:00.076Z,2.58
2017-04-22T12:22:59.022Z,2.00
2017-04-22T12:23:57.980Z,2.58
2017-04-22T12:24:57.744Z,2.85
2017-04-22T12:25:56.668Z,2.12
2017-04-22T12:26:56.337Z,1.75
2017-04-22T12:27:55.715Z,2.42
2017-04-22T12:28:54.658Z,2.63
2017-04-22T12:29:53.616Z,2.37
2017-04-22T12:30:52.663Z,2.05
2017-04-22T12:31:51.589Z,2.35
2017-04-22T12:32:51.242Z,2.73
2017-04-22T12:33:50.171Z,2.30
2017-04-22T12:34:49.209Z,2.37
2017-04-22T12:35:48.244Z,2.72
2017-04-22T12:36:47.165Z,2.38
2017-04-22T12:37:46.097Z,2.48
2017-04-22T12:38:45.791Z,2.23
2017-04-22T12:39:45.596Z,2.37
2017-04-22T12:40:44.575Z,2.70
2017-04-22T12:41:44.272Z,2.45
2017-04-22T12:42:43.962Z,2.30
2017-04-22T12:43:43.843Z,2.60
2017-04-22T12:44:42.802Z,2.64
2017-04-22T12:45:41.799Z,2.40
2017-04-22T12:46:40.744Z,2.87
2017-04-22T12:47:39.724Z,2.63
2017-04-22T12:48:38.778Z,2.63
2017-04-22T12:49:37.732Z,2.48
2017-04-22T12:50:36.675Z,2.40
2017-04-22T12:51:35.700Z,2.20
2017-04-22T12:52:34.610Z,2.22
2017-04-22T12:53:34.330Z,2.50
2017-04-22T12:54:33.314Z,2.60
2017-04-22T12:55:32.325Z,2.53
2017-04-22T12:56:31.284Z,2.33
2017-04-22T12:57:30.686Z,2.40
2017-04-22T12:58:29.713Z,2.70
2017-04-22T12:59:28.684Z,2.13
2017-04-22T13:00:27.668Z,2.37
2017-04-22T13:01:28.997Z,2.30
2017-04-22T13:02:27.936Z,1.50
2017-04-22T13:03:26.856Z,1.85
2017-04-22T13:04:25.788Z,2.03
2017-04-22T13:05:25.468Z,1.90
2017-04-22T13:06:24.465Z,2.17